Romsey, United Kingdom
Current Conditions -  °F | °C
As of 5:50 PM on Tuesday 21 Oct 2014 (Local Time) from EGHI Reporting Station
Few Clouds Few Clouds  
Wind Chill: 52°   Ceiling: Unl
Heat Index: 52°   Visibility: 6mi
Dew Point: 36°   Wind: 18mph
Humidity: 54%   Direction: 280°W
Pressure: 29.97"   Gusts: NA
Location:  50.99°N, 1.5°W
Report Text: EGHI 211650Z 28016KT 240V320 9999 FEW047 11/02 Q1015
Loading
Personal Weather Stations






























Interactive Weather Map
Tropical Storm Tracking
New forecast layout! Learn more

10-Day Weather Forecast

Advertisements
Track Severe Weather on mobile